Terminal Aerodrome Forecast
Issued by NWS Atlanta, GA

Current Version | Previous Version | Text Only | Print | Product List | Glossary On
Versions: 1 2 3 4 5 6 7 8 9 10 11 12 13 14 15 16 17 18 19 20 21 22 23 24 25 26 27 28 29 30 31 32 33 34 35 36 37 38 39 40
538
FTUS42 KFFC 011127
TAFATL
TAF
KATL 011127Z 0112/0218 22007KT P6SM SCT008 BKN012
      TEMPO 0112/0113 5SM BR OVC008
     FM011400 27006KT P6SM FEW025
     FM011800 28007KT P6SM SCT045
     FM020000 28004KT P6SM FEW250
     FM021400 28005KT P6SM FEW040=

USA.gov is the U.S. government's official web portal to all federal, state and local government web resources and services.